Time;durP1;ratioP1;P1;durP2;ratioP2;P2;SDS_P1;SDS_P2;PMS_P1;PMS_P2;Temp;Humidity;BMP_temperature;BMP_pressure;BME280_temperature;BME280_humidity;BME280_pressure;Samples;Min_cycle;Max_cycle;Signal;HPM_P1;HPM_P2
2022/01/27 00:07:36;;;;;;;11.60;5.10;;;7.70;99.90;;;;;;4991216;28;20022;-83
2022/01/27 00:10:10;;;;;;;14.98;4.85;;;7.80;99.90;;;;;;4987768;28;20030;-82
2022/01/27 00:12:41;;;;;;;11.50;5.07;;;7.80;99.90;;;;;;4973926;28;20060;-82
2022/01/27 00:15:10;;;;;;;14.70;5.50;;;7.80;99.90;;;;;;5004156;28;20137;-82
2022/01/27 00:17:46;;;;;;;11.15;4.90;;;7.70;99.90;;;;;;4972166;28;20038;-83
2022/01/27 00:20:13;;;;;;;15.23;5.20;;;7.80;99.90;;;;;;5005525;28;20089;-82
2022/01/27 00:22:39;;;;;;;17.58;5.47;;;7.80;99.90;;;;;;4956256;28;20026;-83
2022/01/27 00:25:07;;;;;;;9.32;5.00;;;7.80;99.90;;;;;;4987300;28;20023;-81
2022/01/27 00:27:39;;;;;;;15.90;5.25;;;7.90;99.90;;;;;;5003890;28;20030;-82
2022/01/27 00:30:07;;;;;;;16.90;5.40;;;7.90;99.90;;;;;;5003669;28;20023;-82
2022/01/27 00:32:33;;;;;;;12.50;5.38;;;7.90;99.90;;;;;;4970898;28;20068;-82
2022/01/27 00:35:00;;;;;;;16.27;5.38;;;7.90;99.90;;;;;;4971640;28;20025;-82
2022/01/27 00:37:26;;;;;;;12.55;5.05;;;8.00;99.90;;;;;;4971158;28;20022;-82
2022/01/27 00:39:52;;;;;;;14.07;5.70;;;8.10;99.90;;;;;;4993732;28;20025;-83
2022/01/27 00:42:18;;;;;;;11.27;4.60;;;8.10;99.90;;;;;;4993031;28;20025;-84
2022/01/27 00:44:44;;;;;;;15.23;5.22;;;8.10;99.90;;;;;;5023704;28;20088;-82
2022/01/27 00:47:12;;;;;;;14.18;4.85;;;8.30;99.90;;;;;;5007096;28;20018;-83
2022/01/27 00:49:41;;;;;;;11.77;4.88;;;8.30;99.90;;;;;;5006321;28;20033;-82
2022/01/27 00:52:10;;;;;;;10.85;4.72;;;8.30;99.90;;;;;;5006291;28;20116;-83
2022/01/27 00:54:36;;;;;;;17.35;5.57;;;8.40;99.90;;;;;;5024035;28;20021;-83
2022/01/27 00:57:10;;;;;;;11.15;5.70;;;8.60;99.90;;;;;;4990825;28;20037;-82
2022/01/27 01:02:42;;;;;;;9.70;4.88;;;8.60;99.90;;;;;;5022987;28;20384;-82
2022/01/27 01:05:26;;;;;;;14.38;5.57;;;8.60;99.90;;;;;;4994459;28;20021;-81
2022/01/27 01:07:56;;;;;;;12.15;4.57;;;8.60;99.90;;;;;;5023736;28;20084;-82
2022/01/27 01:15:55;;;;;;;16.20;5.80;;;8.70;99.90;;;;;;5009772;28;20020;-83
2022/01/27 01:18:38;;;;;;;13.65;5.75;;;8.70;99.90;;;;;;5006529;28;20100;-82
2022/01/27 01:21:18;;;;;;;13.93;4.95;;;8.70;99.90;;;;;;5006377;28;20025;-82
2022/01/27 01:32:16;;;;;;;11.80;5.50;;;8.60;99.90;;;;;;5009038;28;20088;-81
2022/01/27 01:34:46;;;;;;;11.93;5.35;;;8.60;99.90;;;;;;5024177;28;20095;-81
2022/01/27 01:37:12;;;;;;;15.93;6.22;;;8.60;99.90;;;;;;5022711;28;20034;-81
2022/01/27 01:39:38;;;;;;;11.80;5.22;;;8.60;99.90;;;;;;5002727;28;20029;-82
2022/01/27 01:42:07;;;;;;;17.35;5.63;;;8.60;99.90;;;;;;4990456;28;20018;-82
2022/01/27 01:44:37;;;;;;;11.40;5.22;;;8.50;99.90;;;;;;5005224;28;20022;-81
2022/01/27 01:47:03;;;;;;;14.07;5.28;;;8.50;99.90;;;;;;5006649;28;20064;-82
2022/01/27 01:49:29;;;;;;;12.00;4.57;;;8.50;99.90;;;;;;5005733;28;20033;-82
2022/01/27 01:51:57;;;;;;;15.68;5.35;;;8.40;99.90;;;;;;5006025;28;20018;-82
2022/01/27 01:54:24;;;;;;;10.95;5.00;;;8.40;99.90;;;;;;4989766;28;20030;-81
2022/01/27 01:56:50;;;;;;;14.68;5.10;;;8.40;99.90;;;;;;5006284;28;20026;-83
2022/01/27 01:59:15;;;;;;;16.30;6.55;;;8.50;99.90;;;;;;5023452;28;20069;-82
2022/01/27 02:01:42;;;;;;;18.55;5.30;;;8.50;99.90;;;;;;4989954;28;20208;-82
2022/01/27 02:04:10;;;;;;;15.57;5.18;;;8.60;99.90;;;;;;5006067;28;20026;-82
2022/01/27 02:06:56;;;;;;;11.05;3.75;;;8.60;99.90;;;;;;5004831;28;20328;-82
2022/01/27 02:09:32;;;;;;;16.27;4.60;;;8.70;99.90;;;;;;5008919;28;20297;-83
2022/01/27 02:20:15;;;;;;;12.65;3.97;;;8.90;99.90;;;;;;5022663;28;20571;-81
2022/01/27 02:22:41;;;;;;;11.77;3.88;;;8.90;99.90;;;;;;5026496;28;20025;-83
2022/01/27 02:25:07;;;;;;;12.23;2.97;;;9.00;99.90;;;;;;5020078;28;20037;-82
2022/01/27 02:27:33;;;;;;;12.57;3.15;;;9.00;99.90;;;;;;5020034;28;20010;-82
2022/01/27 02:30:00;;;;;;;15.60;3.35;;;9.00;99.90;;;;;;5036630;28;20038;-83
2022/01/27 02:32:25;;;;;;;14.00;3.53;;;9.00;99.90;;;;;;5018566;28;20006;-81
2022/01/27 02:34:51;;;;;;;12.35;3.35;;;9.00;99.90;;;;;;5016645;28;20048;-83
2022/01/27 02:37:17;;;;;;;17.90;4.00;;;9.00;99.90;;;;;;5013365;28;20021;-82
2022/01/27 02:39:42;;;;;;;12.70;2.97;;;9.10;99.90;;;;;;5007898;28;20030;-82
2022/01/27 02:42:31;;;;;;;9.95;2.72;;;9.10;99.90;;;;;;5006363;28;20025;-80
2022/01/27 02:45:12;;;;;;;15.63;3.65;;;9.10;99.90;;;;;;4991783;28;20061;-82
2022/01/27 02:47:42;;;;;;;7.53;3.15;;;9.00;99.90;;;;;;5021603;28;20048;-81
2022/01/27 02:50:08;;;;;;;14.23;4.22;;;9.10;99.90;;;;;;5005949;28;20285;-81
2022/01/27 02:52:37;;;;;;;18.55;3.72;;;9.10;99.90;;;;;;5023136;28;20077;-81
2022/01/27 02:55:03;;;;;;;13.95;3.35;;;9.10;99.90;;;;;;5022439;28;20037;-82
2022/01/27 02:57:29;;;;;;;10.80;3.17;;;9.20;99.90;;;;;;4993265;28;20332;-82
2022/01/27 02:59:55;;;;;;;16.02;4.10;;;9.10;99.90;;;;;;5008542;28;20026;-82
2022/01/27 03:02:22;;;;;;;11.20;3.42;;;9.10;99.90;;;;;;4993009;28;20018;-81
2022/01/27 03:04:47;;;;;;;13.82;3.13;;;9.10;99.90;;;;;;5009115;28;20053;-83
2022/01/27 03:07:14;;;;;;;14.80;3.33;;;9.10;99.90;;;;;;4991461;28;20328;-81
2022/01/27 03:09:39;;;;;;;13.50;3.25;;;9.10;99.90;;;;;;5008981;28;20117;-81
2022/01/27 03:12:07;;;;;;;14.98;3.60;;;9.20;99.90;;;;;;4992179;28;20312;-82
2022/01/27 03:14:35;;;;;;;17.65;3.63;;;9.10;99.90;;;;;;4992502;28;20032;-81
2022/01/27 03:17:06;;;;;;;12.32;3.13;;;9.20;99.90;;;;;;4992687;28;20022;-83
2022/01/27 03:19:36;;;;;;;24.05;3.53;;;9.20;99.90;;;;;;5008629;28;20065;-82
2022/01/27 03:22:03;;;;;;;15.02;3.42;;;9.20;99.90;;;;;;5008476;28;20075;-81
2022/01/27 03:24:30;;;;;;;16.77;3.30;;;9.20;99.90;;;;;;4992558;28;20060;-82
2022/01/27 03:26:56;;;;;;;17.15;3.13;;;9.20;99.90;;;;;;4992787;28;20030;-82
2022/01/27 03:29:23;;;;;;;13.82;3.63;;;9.20;99.90;;;;;;4991342;28;20038;-82
2022/01/27 03:31:49;;;;;;;10.35;3.22;;;9.20;99.90;;;;;;5008220;28;20096;-81
2022/01/27 03:34:15;;;;;;;14.65;3.13;;;9.30;99.90;;;;;;5008495;28;20022;-82
2022/01/27 03:36:41;;;;;;;15.90;3.28;;;9.20;99.90;;;;;;4991870;28;20029;-81
2022/01/27 03:39:08;;;;;;;13.38;3.78;;;9.20;99.90;;;;;;5005046;28;20018;-82
2022/01/27 03:41:36;;;;;;;9.23;3.00;;;9.20;99.90;;;;;;5005121;28;20093;-82
2022/01/27 03:44:03;;;;;;;14.02;3.13;;;9.10;99.90;;;;;;4988169;28;20022;-81
2022/01/27 03:46:31;;;;;;;13.18;2.80;;;9.10;99.90;;;;;;4996834;28;20190;-81
2022/01/27 03:48:56;;;;;;;12.52;3.33;;;9.00;99.90;;;;;;5008271;28;20301;-81
2022/01/27 03:51:22;;;;;;;13.23;3.08;;;9.00;99.90;;;;;;5024620;28;20105;-81
2022/01/27 03:53:52;;;;;;;14.88;3.33;;;9.00;99.90;;;;;;5007934;28;20080;-81
2022/01/27 03:56:17;;;;;;;15.38;3.60;;;9.00;99.90;;;;;;5008097;28;20113;-82
2022/01/27 03:58:43;;;;;;;15.45;3.92;;;9.00;99.90;;;;;;5008148;28;20304;-82
2022/01/27 04:01:08;;;;;;;9.77;2.85;;;9.00;99.90;;;;;;5008071;28;20022;-81
2022/01/27 04:03:38;;;;;;;14.43;4.18;;;9.00;99.90;;;;;;5025492;28;20026;-81
2022/01/27 04:06:08;;;;;;;13.63;3.78;;;9.10;99.90;;;;;;5007824;28;20063;-82
2022/01/27 04:08:37;;;;;;;18.70;4.22;;;9.00;99.90;;;;;;5021763;28;20032;-82
2022/01/27 04:11:05;;;;;;;11.82;3.38;;;9.00;99.90;;;;;;5008101;28;20048;-81
2022/01/27 04:13:31;;;;;;;18.92;3.70;;;9.10;99.90;;;;;;5007124;28;20068;-82
2022/01/27 04:15:56;;;;;;;22.38;4.43;;;9.00;99.90;;;;;;5007808;28;20025;-81
2022/01/27 04:18:22;;;;;;;17.05;4.03;;;9.00;99.90;;;;;;4991081;28;20026;-81
2022/01/27 04:20:48;;;;;;;13.20;3.38;;;9.00;99.90;;;;;;5025248;28;20021;-80
2022/01/27 04:23:14;;;;;;;19.40;3.55;;;9.00;99.90;;;;;;5024747;28;20388;-82
2022/01/27 04:25:40;;;;;;;15.63;4.22;;;9.00;99.90;;;;;;4991144;28;20022;-82
2022/01/27 04:28:10;;;;;;;13.65;3.22;;;8.90;99.90;;;;;;5007371;28;20323;-81
2022/01/27 04:30:35;;;;;;;17.23;3.70;;;9.00;99.90;;;;;;4992109;28;20037;-82
2022/01/27 04:33:04;;;;;;;18.23;3.13;;;9.00;99.90;;;;;;5024849;28;20084;-82
2022/01/27 04:35:33;;;;;;;16.27;3.40;;;8.90;99.90;;;;;;4991646;28;20046;-81
2022/01/27 04:43:47;;;;;;;18.65;3.75;;;9.00;99.90;;;;;;5009866;28;20080;-81
2022/01/27 04:46:25;;;;;;;15.03;3.57;;;9.00;99.90;;;;;;5023278;28;20063;-82
2022/01/27 04:48:59;;;;;;;24.75;3.83;;;9.00;99.90;;;;;;5024773;28;20041;-82
2022/01/27 04:51:25;;;;;;;16.73;3.53;;;9.00;99.90;;;;;;4992915;28;20225;-82
2022/01/27 04:56:39;;;;;;;20.48;3.72;;;8.90;99.90;;;;;;5010024;28;20048;-80
2022/01/27 04:59:13;;;;;;;21.33;3.63;;;8.90;99.90;;;;;;5024789;28;20030;-81
2022/01/27 05:01:45;;;;;;;15.20;3.63;;;9.00;99.90;;;;;;5024218;28;20026;-82
2022/01/27 05:04:15;;;;;;;18.20;3.35;;;9.00;99.90;;;;;;5006763;28;20021;-81
2022/01/27 05:06:41;;;;;;;18.13;4.28;;;9.00;99.90;;;;;;5006523;28;20025;-80
2022/01/27 05:09:07;;;;;;;17.05;4.60;;;8.90;99.90;;;;;;5023044;28;20033;-80
2022/01/27 05:11:38;;;;;;;16.70;3.58;;;8.90;99.90;;;;;;5006495;28;20029;-81
2022/01/27 05:14:16;;;;;;;17.80;3.33;;;8.90;99.90;;;;;;5023949;28;20017;-80
2022/01/27 05:16:42;;;;;;;14.00;4.32;;;8.90;99.90;;;;;;5024198;28;20028;-81
2022/01/27 05:19:08;;;;;;;17.60;5.15;;;8.90;99.90;;;;;;5005664;28;20045;-81
2022/01/27 05:21:34;;;;;;;16.20;3.53;;;8.90;99.90;;;;;;5006404;28;20052;-81
2022/01/27 05:24:02;;;;;;;13.18;3.42;;;8.80;99.90;;;;;;5023935;28;20025;-80
2022/01/27 05:26:27;;;;;;;19.33;4.03;;;8.80;99.90;;;;;;5024382;28;20032;-82
2022/01/27 05:28:56;;;;;;;18.95;2.92;;;8.90;99.90;;;;;;5006310;28;20030;-81
2022/01/27 05:31:22;;;;;;;27.73;4.18;;;8.90;99.90;;;;;;5007228;28;20021;-80
2022/01/27 05:33:47;;;;;;;17.45;3.58;;;8.90;99.90;;;;;;5023629;28;20014;-80
2022/01/27 05:36:13;;;;;;;19.65;4.03;;;8.90;99.90;;;;;;5006584;28;20219;-81
2022/01/27 05:38:39;;;;;;;18.63;3.97;;;9.00;99.90;;;;;;4990202;28;20208;-82
2022/01/27 05:41:06;;;;;;;19.38;3.78;;;9.00;99.90;;;;;;5006350;28;20022;-80
2022/01/27 05:43:32;;;;;;;18.48;4.07;;;9.00;99.90;;;;;;5005855;28;20021;-82
2022/01/27 05:45:58;;;;;;;17.40;3.70;;;9.10;99.90;;;;;;5006060;28;20022;-80
2022/01/27 05:48:24;;;;;;;21.20;3.55;;;9.00;99.90;;;;;;5022643;28;20064;-81
2022/01/27 05:50:49;;;;;;;21.92;4.40;;;9.10;99.90;;;;;;5006255;28;20040;-81
2022/01/27 05:53:15;;;;;;;14.35;2.97;;;9.10;99.90;;;;;;5005352;28;20341;-80
2022/01/27 05:55:41;;;;;;;20.80;3.97;;;9.20;99.90;;;;;;5023872;28;20060;-80
2022/01/27 05:58:09;;;;;;;19.88;4.00;;;9.10;99.90;;;;;;5023190;28;20228;-81
2022/01/27 06:00:35;;;;;;;17.30;3.25;;;9.20;99.90;;;;;;5005796;28;20026;-80
2022/01/27 06:03:02;;;;;;;18.08;3.30;;;9.20;99.90;;;;;;5024043;28;20080;-81
2022/01/27 06:05:28;;;;;;;16.88;3.17;;;9.20;99.90;;;;;;5005959;28;20018;-80
2022/01/27 06:07:53;;;;;;;13.55;3.13;;;9.20;99.90;;;;;;5023456;28;20236;-80
2022/01/27 06:10:20;;;;;;;20.42;3.60;;;9.20;99.90;;;;;;5004840;28;20041;-80
2022/01/27 06:12:48;;;;;;;20.13;3.10;;;9.20;99.90;;;;;;5005973;28;20372;-80
2022/01/27 06:15:14;;;;;;;11.77;2.88;;;9.20;99.90;;;;;;4998739;28;20018;-80
2022/01/27 06:17:39;;;;;;;16.58;3.15;;;9.30;99.90;;;;;;5020393;28;20026;-79
2022/01/27 06:20:06;;;;;;;15.82;3.60;;;9.20;99.90;;;;;;5036252;28;20018;-80
2022/01/27 06:22:32;;;;;;;20.85;2.92;;;9.30;99.90;;;;;;5019369;28;20034;-79
2022/01/27 06:24:57;;;;;;;14.18;3.42;;;9.30;99.90;;;;;;5001321;28;20018;-80
2022/01/27 06:27:23;;;;;;;15.38;2.70;;;9.30;99.90;;;;;;4999939;28;20034;-79
2022/01/27 06:29:51;;;;;;;12.27;3.00;;;9.30;99.90;;;;;;5013391;28;20073;-79
2022/01/27 06:32:17;;;;;;;17.50;2.25;;;9.30;99.90;;;;;;5013758;28;20046;-81
2022/01/27 06:34:42;;;;;;;15.90;2.70;;;9.30;99.90;;;;;;5026761;28;20234;-80
2022/01/27 06:37:08;;;;;;;18.42;2.55;;;9.40;99.90;;;;;;5008966;28;20272;-81
2022/01/27 06:39:34;;;;;;;17.13;3.30;;;9.40;99.90;;;;;;5026610;28;20017;-81
2022/01/27 06:42:01;;;;;;;21.92;2.97;;;9.40;99.90;;;;;;5009124;28;20025;-80
2022/01/27 06:44:29;;;;;;;10.50;2.60;;;9.40;99.90;;;;;;5026539;28;20209;-81
2022/01/27 06:46:55;;;;;;;17.95;2.65;;;9.50;99.90;;;;;;5025035;28;20048;-80
2022/01/27 06:49:21;;;;;;;9.15;2.03;;;9.50;99.90;;;;;;5008887;28;20038;-82
2022/01/27 06:51:47;;;;;;;13.80;2.55;;;9.50;99.90;;;;;;4992710;28;20089;-80
2022/01/27 06:54:15;;;;;;;12.60;2.38;;;9.60;99.90;;;;;;5008570;28;20054;-80
2022/01/27 06:56:41;;;;;;;14.30;3.30;;;9.60;99.90;;;;;;5009136;28;20017;-82
2022/01/27 06:59:07;;;;;;;8.32;2.25;;;9.50;99.90;;;;;;5009349;28;20030;-82
2022/01/27 07:01:32;;;;;;;11.75;2.63;;;9.50;99.90;;;;;;5009505;28;20029;-83
2022/01/27 07:03:58;;;;;;;10.82;2.85;;;9.60;99.90;;;;;;5009007;28;20030;-80
2022/01/27 07:06:27;;;;;;;8.30;2.45;;;9.60;99.90;;;;;;5026662;28;20269;-81
2022/01/27 07:08:53;;;;;;;12.25;2.47;;;9.60;99.90;;;;;;5009224;28;20021;-82
2022/01/27 07:11:18;;;;;;;14.50;2.67;;;9.60;99.90;;;;;;5007653;28;20145;-80
2022/01/27 07:13:44;;;;;;;12.20;2.70;;;9.60;99.90;;;;;;5008729;28;20025;-82
2022/01/27 07:16:11;;;;;;;17.80;3.30;;;9.70;99.90;;;;;;5009022;28;20025;-81
2022/01/27 07:18:37;;;;;;;10.95;2.30;;;9.70;99.90;;;;;;5026440;28;20025;-81
2022/01/27 07:21:04;;;;;;;14.65;2.60;;;9.70;99.90;;;;;;5008743;28;20037;-81
2022/01/27 07:23:30;;;;;;;8.43;1.80;;;9.70;99.90;;;;;;5009197;28;20041;-81
2022/01/27 07:25:56;;;;;;;14.63;2.35;;;9.70;99.90;;;;;;5025515;28;20064;-81
2022/01/27 07:28:22;;;;;;;12.55;2.15;;;9.70;99.90;;;;;;5026464;28;20105;-80
2022/01/27 07:30:48;;;;;;;13.35;2.20;;;9.80;99.90;;;;;;5008961;28;20125;-80
2022/01/27 07:33:14;;;;;;;13.10;1.90;;;9.70;99.90;;;;;;5008714;28;20030;-82
2022/01/27 07:35:41;;;;;;;11.02;2.10;;;9.80;99.90;;;;;;5008412;28;20034;-82
2022/01/27 07:38:07;;;;;;;7.30;1.77;;;9.70;99.90;;;;;;5024675;28;20030;-80
2022/01/27 07:40:34;;;;;;;9.65;2.60;;;9.80;99.90;;;;;;5008444;28;20026;-81
2022/01/27 07:43:00;;;;;;;9.07;1.85;;;9.80;99.90;;;;;;5007652;28;20033;-81
2022/01/27 07:45:26;;;;;;;8.65;2.10;;;9.90;99.90;;;;;;5024970;28;20216;-81
2022/01/27 07:47:53;;;;;;;10.30;2.08;;;9.90;99.90;;;;;;5008219;28;20017;-80
2022/01/27 07:50:20;;;;;;;7.38;1.70;;;9.90;99.90;;;;;;4991812;28;20324;-81
2022/01/27 07:52:46;;;;;;;12.65;2.47;;;9.90;99.90;;;;;;5005219;28;20062;-82
2022/01/27 07:55:13;;;;;;;10.70;1.90;;;10.00;99.90;;;;;;4989183;28;20087;-83
2022/01/27 07:57:40;;;;;;;11.68;2.40;;;10.00;99.90;;;;;;5003655;28;20041;-83
2022/01/27 08:00:10;;;;;;;8.45;2.03;;;10.00;99.90;;;;;;4988665;28;20066;-81
2022/01/27 08:02:35;;;;;;;9.32;3.30;;;10.00;99.90;;;;;;4984948;28;20019;-82
2022/01/27 08:05:04;;;;;;;8.52;2.20;;;10.00;99.90;;;;;;4985283;28;20170;-82
2022/01/27 08:07:30;;;;;;;7.70;1.42;;;10.10;99.90;;;;;;4987029;28;20037;-81
2022/01/27 08:09:56;;;;;;;7.78;1.35;;;10.10;99.90;;;;;;4984699;28;20034;-81
2022/01/27 08:12:22;;;;;;;4.68;1.15;;;10.10;99.90;;;;;;4984911;28;20078;-82
2022/01/27 08:14:53;;;;;;;7.28;1.95;;;10.20;99.90;;;;;;4998701;28;20026;-83
2022/01/27 08:17:20;;;;;;;3.60;1.40;;;10.20;99.90;;;;;;4970565;28;20029;-82
2022/01/27 08:19:45;;;;;;;5.90;1.55;;;10.20;99.90;;;;;;4997417;28;20027;-79
2022/01/27 08:22:11;;;;;;;6.15;1.00;;;10.20;99.90;;;;;;4972499;28;20029;-80
2022/01/27 08:24:38;;;;;;;7.63;1.10;;;10.30;99.90;;;;;;4988614;28;20033;-80
2022/01/27 08:27:06;;;;;;;4.10;0.98;;;10.30;99.90;;;;;;4970366;28;20129;-79
2022/01/27 08:29:38;;;;;;;5.15;1.05;;;10.30;99.90;;;;;;4984466;28;20039;-81
2022/01/27 08:32:09;;;;;;;5.53;0.80;;;10.40;99.90;;;;;;4993399;28;20022;-78
2022/01/27 08:34:37;;;;;;;5.85;2.05;;;10.40;99.90;;;;;;4996433;28;20026;-81
2022/01/27 08:37:11;;;;;;;4.63;1.00;;;10.40;99.90;;;;;;4991424;28;20027;-80
2022/01/27 08:39:38;;;;;;;3.42;0.65;;;10.40;99.90;;;;;;4981780;28;20094;-79
2022/01/27 08:42:05;;;;;;;1.77;0.60;;;10.40;99.90;;;;;;4986205;28;20041;-82
2022/01/27 08:44:31;;;;;;;3.47;0.95;;;10.40;99.90;;;;;;4988089;28;20022;-82
2022/01/27 08:46:57;;;;;;;4.85;0.75;;;10.40;99.90;;;;;;4982958;28;20050;-82
2022/01/27 08:49:25;;;;;;;1.65;0.60;;;10.40;99.90;;;;;;4976987;28;20077;-79
2022/01/27 08:51:51;;;;;;;5.45;0.90;;;10.40;99.90;;;;;;4964723;28;20041;-79
2022/01/27 08:54:17;;;;;;;3.53;0.65;;;10.40;99.90;;;;;;4996242;28;20066;-80
2022/01/27 08:56:45;;;;;;;4.47;0.93;;;10.40;99.90;;;;;;4995813;28;20065;-85
2022/01/27 08:59:13;;;;;;;2.22;0.60;;;10.40;99.90;;;;;;5013274;28;20025;-85
2022/01/27 09:01:40;;;;;;;4.78;1.00;;;10.40;99.90;;;;;;4994730;28;20054;-84
2022/01/27 09:04:07;;;;;;;2.08;0.68;;;10.40;99.90;;;;;;5016825;28;20026;-80
2022/01/27 09:06:36;;;;;;;5.07;1.85;;;10.30;99.90;;;;;;4994685;28;20225;-83
2022/01/27 09:09:05;;;;;;;2.63;0.90;;;10.40;99.90;;;;;;4999723;28;20030;-82
2022/01/27 09:11:32;;;;;;;3.72;0.88;;;10.40;99.90;;;;;;5013827;28;20105;-83
2022/01/27 09:14:01;;;;;;;1.75;0.80;;;10.40;99.90;;;;;;5002140;28;20044;-86
2022/01/27 09:16:29;;;;;;;1.33;0.65;;;10.40;99.90;;;;;;4980858;28;20053;-81
2022/01/27 09:18:57;;;;;;;2.38;0.80;;;10.40;99.90;;;;;;4995203;28;20019;-78
2022/01/27 09:21:26;;;;;;;1.95;0.98;;;10.40;99.90;;;;;;5005011;28;20035;-81
2022/01/27 09:23:53;;;;;;;3.50;0.68;;;10.40;99.90;;;;;;5002025;28;20041;-78
2022/01/27 09:26:51;;;;;;;6.97;0.73;;;10.40;99.90;;;;;;4995916;28;20056;-79
2022/01/27 09:29:06;;;;;;;2.03;0.70;;;10.50;99.90;;;;;;4997824;28;20080;-81
2022/01/27 09:31:33;;;;;;;0.47;0.47;;;10.40;99.90;;;;;;4986608;28;20053;-82
2022/01/27 09:33:58;;;;;;;3.40;0.60;;;10.40;99.90;;;;;;4995216;28;20366;-80
2022/01/27 09:36:24;;;;;;;3.10;0.90;;;10.50;99.90;;;;;;5011804;28;20030;-81
2022/01/27 09:38:50;;;;;;;4.10;0.80;;;10.50;99.90;;;;;;4994346;28;20041;-79
2022/01/27 09:41:19;;;;;;;4.45;1.08;;;10.50;99.90;;;;;;4994090;28;20022;-81
2022/01/27 09:43:48;;;;;;;2.42;0.75;;;10.60;99.90;;;;;;4986848;28;20304;-80
2022/01/27 09:46:17;;;;;;;4.25;1.00;;;10.60;99.90;;;;;;5000945;28;20061;-77
2022/01/27 09:48:47;;;;;;;3.05;1.10;;;10.60;99.90;;;;;;5022298;28;20062;-79
2022/01/27 09:51:27;;;;;;;5.03;1.20;;;10.60;99.90;;;;;;5015224;28;20034;-81
2022/01/27 09:53:56;;;;;;;6.25;1.40;;;10.60;99.90;;;;;;4996918;28;20062;-80
2022/01/27 09:56:24;;;;;;;3.67;1.23;;;10.70;99.90;;;;;;5000816;28;20025;-80
2022/01/27 09:58:52;;;;;;;8.70;1.33;;;10.70;99.90;;;;;;5001902;28;20040;-81
2022/01/27 10:01:21;;;;;;;1.25;0.98;;;10.80;99.90;;;;;;5001976;28;20048;-80
2022/01/27 10:03:59;;;;;;;5.18;1.38;;;10.80;99.90;;;;;;4995336;28;20088;-78
2022/01/27 10:06:31;;;;;;;4.20;1.10;;;10.90;99.90;;;;;;5009690;28;20022;-79
2022/01/27 10:09:13;;;;;;;5.65;1.58;;;10.90;99.90;;;;;;5029616;28;20056;-83
2022/01/27 10:11:39;;;;;;;5.97;1.27;;;11.00;99.90;;;;;;5018014;28;20098;-81
2022/01/27 10:14:32;;;;;;;7.85;1.92;;;11.00;99.90;;;;;;5015753;28;20228;-81
2022/01/27 10:17:01;;;;;;;4.05;1.70;;;11.10;99.90;;;;;;5003765;28;20022;-80
2022/01/27 10:19:27;;;;;;;5.20;1.63;;;11.20;99.90;;;;;;5012510;28;20024;-79
2022/01/27 10:22:02;;;;;;;3.33;1.40;;;11.40;99.90;;;;;;4998264;28;20037;-79
2022/01/27 10:24:31;;;;;;;4.63;1.33;;;11.40;99.90;;;;;;4981983;28;20033;-80
2022/01/27 10:27:32;;;;;;;5.68;2.08;;;11.50;99.90;;;;;;4998114;28;20072;-80
2022/01/27 10:30:35;;;;;;;2.67;1.40;;;11.60;99.90;;;;;;4990561;28;20365;-81
2022/01/27 10:32:47;;;;;;;4.80;1.77;;;11.60;99.90;;;;;;5011337;28;20022;-84
2022/01/27 10:35:15;;;;;;;9.38;2.28;;;11.70;99.90;;;;;;5000606;28;20022;-81
2022/01/27 10:38:03;;;;;;;5.75;2.42;;;11.70;99.90;;;;;;5001718;28;20018;-79
2022/01/27 10:40:47;;;;;;;8.18;3.00;;;11.80;99.90;;;;;;5001303;28;20018;-78
2022/01/27 10:43:24;;;;;;;7.40;3.10;;;11.80;99.90;;;;;;4987661;28;20014;-82
2022/01/27 10:46:16;;;;;;;5.32;2.85;;;11.80;99.90;;;;;;5018066;28;20029;-78
2022/01/27 10:48:44;;;;;;;;;;;11.90;99.90;;;;;;4992575;28;20336;-83
2022/01/27 10:51:19;;;;;;;9.35;3.70;;;11.90;99.90;;;;;;5019211;28;19913;-81
2022/01/27 10:53:56;;;;;;;7.97;3.67;;;11.90;99.90;;;;;;5006302;28;20058;-80
2022/01/27 10:56:25;;;;;;;11.40;4.00;;;11.90;99.90;;;;;;5006492;28;20026;-79
2022/01/27 10:58:51;;;;;;;11.32;4.28;;;11.90;99.90;;;;;;5014851;28;20076;-80
2022/01/27 11:01:30;;;;;;;7.72;3.63;;;11.90;99.90;;;;;;5013996;28;20042;-80
2022/01/27 11:04:00;;;;;;;12.57;3.90;;;11.90;99.90;;;;;;5005883;28;20029;-79
2022/01/27 11:06:28;;;;;;;9.43;3.72;;;12.00;99.90;;;;;;4998933;28;20025;-81
2022/01/27 11:08:55;;;;;;;8.43;4.03;;;12.10;99.90;;;;;;5021471;28;20026;-80
2022/01/27 11:11:23;;;;;;;10.43;4.00;;;12.10;99.90;;;;;;5001930;28;20352;-83
2022/01/27 11:13:49;;;;;;;9.50;4.55;;;12.10;99.90;;;;;;5010833;28;20026;-81
2022/01/27 11:16:18;;;;;;;10.52;5.50;;;12.00;99.90;;;;;;4996470;28;20089;-79
2022/01/27 11:18:46;;;;;;;14.75;5.30;;;12.00;99.90;;;;;;4997701;28;20229;-80
2022/01/27 11:21:24;;;;;;;11.73;5.82;;;11.90;99.90;;;;;;4996142;28;20018;-80
2022/01/27 11:24:08;;;;;;;14.15;5.35;;;11.90;99.90;;;;;;5003375;28;20022;-81
2022/01/27 11:26:40;;;;;;;10.85;5.60;;;11.90;99.90;;;;;;5018320;28;20104;-80
2022/01/27 11:29:07;;;;;;;;;;;12.00;99.90;;;;;;4998828;28;20030;-79
2022/01/27 11:32:12;;;;;;;11.90;5.75;;;12.00;99.90;;;;;;5013326;28;19905;-78
2022/01/27 11:34:48;;;;;;;13.18;5.43;;;12.00;99.90;;;;;;4994472;28;20081;-79
2022/01/27 11:37:18;;;;;;;12.93;4.80;;;12.10;99.90;;;;;;4981275;28;20093;-78
2022/01/27 11:39:55;;;;;;;10.38;4.90;;;12.10;99.90;;;;;;5019265;28;20021;-81
2022/01/27 11:43:01;;;;;;;12.85;4.35;;;12.00;99.90;;;;;;5011286;28;20089;-79
2022/01/27 11:45:37;;;;;;;11.70;4.47;;;12.10;99.90;;;;;;4991108;28;20033;-79
2022/01/27 11:48:08;;;;;;;12.20;4.43;;;12.10;99.90;;;;;;5001531;28;20087;-81
2022/01/27 11:50:38;;;;;;;12.52;4.65;;;12.10;99.90;;;;;;4984811;28;20305;-78
2022/01/27 11:53:08;;;;;;;10.02;4.15;;;12.00;99.90;;;;;;4995778;28;20080;-79
2022/01/27 11:55:44;;;;;;;18.23;5.15;;;12.00;99.90;;;;;;4997638;28;20091;-81
2022/01/27 11:58:17;;;;;;;15.75;5.13;;;11.90;99.90;;;;;;4992364;28;20026;-80
2022/01/27 12:01:22;;;;;;;12.07;4.55;;;11.90;99.90;;;;;;4997165;28;20022;-83
2022/01/27 12:04:08;;;;;;;13.10;5.35;;;11.90;99.90;;;;;;4986837;28;20080;-87
2022/01/27 12:06:36;;;;;;;14.40;4.72;;;11.90;99.90;;;;;;4998559;28;20202;-85
2022/01/27 12:09:26;;;;;;;10.93;5.40;;;11.90;99.90;;;;;;4997711;28;20042;-80
2022/01/27 12:12:12;;;;;;;13.13;5.43;;;11.90;99.90;;;;;;4966107;28;20057;-80
2022/01/27 12:15:01;;;;;;;12.45;5.45;;;12.00;99.90;;;;;;5011873;28;20045;-88
2022/01/27 12:17:28;;;;;;;13.57;6.10;;;12.00;99.90;;;;;;4983199;28;20018;-86
2022/01/27 12:19:57;;;;;;;13.95;5.15;;;12.00;99.90;;;;;;5014174;28;20101;-80
2022/01/27 12:23:00;;;;;;;17.98;6.10;;;12.00;99.90;;;;;;4998097;28;20018;-79
2022/01/27 12:25:42;;;;;;;11.75;5.85;;;12.10;99.90;;;;;;4988156;28;20018;-83
2022/01/27 12:28:08;;;;;;;22.05;7.10;;;12.10;99.90;;;;;;4998362;28;20022;-84
2022/01/27 12:30:36;;;;;;;13.35;6.57;;;12.20;99.90;;;;;;4993950;28;20052;-79
2022/01/27 12:33:02;;;;;;;16.05;6.85;;;12.40;99.90;;;;;;4997888;28;20076;-81
2022/01/27 12:35:28;;;;;;;15.98;6.78;;;12.40;99.90;;;;;;4988513;28;20049;-78
2022/01/27 12:37:57;;;;;;;14.23;6.45;;;12.40;99.90;;;;;;5013770;28;20186;-81
2022/01/27 12:40:26;;;;;;;14.40;6.32;;;12.40;99.90;;;;;;5006833;28;20029;-81
2022/01/27 12:42:59;;;;;;;12.40;6.15;;;12.60;99.90;;;;;;4980212;28;20045;-82
2022/01/27 12:45:29;;;;;;;15.10;7.18;;;12.70;99.90;;;;;;5011883;28;20084;-82
2022/01/27 12:47:57;;;;;;;15.48;7.65;;;12.70;99.90;;;;;;5006904;28;20093;-83
2022/01/27 12:50:24;;;;;;;17.95;8.27;;;12.80;99.90;;;;;;5005464;28;20057;-83
2022/01/27 12:52:54;;;;;;;17.77;7.70;;;12.80;99.90;;;;;;5006555;28;20046;-80
2022/01/27 12:55:22;;;;;;;13.80;7.38;;;12.70;99.90;;;;;;4975552;28;20216;-80
2022/01/27 12:58:08;;;;;;;15.98;7.53;;;12.70;99.90;;;;;;5015576;28;20240;-81
2022/01/27 13:00:48;;;;;;;16.77;7.25;;;12.70;99.90;;;;;;4989735;28;20014;-80
2022/01/27 13:03:15;;;;;;;18.50;8.07;;;12.70;99.90;;;;;;5000370;28;20030;-77
2022/01/27 13:05:47;;;;;;;19.20;8.80;;;12.60;99.90;;;;;;5012995;28;20026;-79
2022/01/27 13:08:15;;;;;;;14.90;7.25;;;12.60;99.90;;;;;;4996671;28;20034;-77
2022/01/27 13:10:53;;;;;;;12.95;5.30;;;12.50;99.90;;;;;;5016276;28;20038;-78
2022/01/27 13:13:23;;;;;;;11.80;6.05;;;12.40;99.90;;;;;;4978598;28;20030;-79
2022/01/27 13:16:13;;;;;;;10.05;5.38;;;12.40;99.90;;;;;;4998400;28;20025;-80
2022/01/27 13:18:45;;;;;;;13.70;7.25;;;12.40;99.90;;;;;;5015735;28;20028;-80
2022/01/27 13:21:27;;;;;;;12.25;6.30;;;12.40;99.90;;;;;;4998609;28;20025;-83
2022/01/27 13:24:14;;;;;;;16.10;7.40;;;12.50;99.90;;;;;;4999103;28;20053;-78
2022/01/27 13:26:44;;;;;;;8.30;4.20;;;12.60;99.90;;;;;;4986794;28;20036;-80
2022/01/27 13:29:15;;;;;;;8.07;4.68;;;12.70;99.90;;;;;;4996359;28;21214;-80
2022/01/27 13:31:42;;;;;;;7.65;4.55;;;12.60;99.90;;;;;;5013602;28;20033;-80
2022/01/27 13:34:08;;;;;;;9.65;4.10;;;12.70;99.90;;;;;;5000097;28;20289;-78
2022/01/27 13:36:36;;;;;;;7.45;3.20;;;12.60;99.90;;;;;;5012617;28;20026;-79
2022/01/27 13:39:13;;;;;;;4.80;2.88;;;12.70;99.90;;;;;;5018706;28;20052;-77